Time;durP1;ratioP1;P1;durP2;ratioP2;P2;SDS_P1;SDS_P2;PMS_P1;PMS_P2;Temp;Humidity;BMP_temperature;BMP_pressure;BME280_temperature;BME280_humidity;BME280_pressure;Samples;Min_cycle;Max_cycle;Signal;HPM_P1;HPM_P2
2023/10/04 00:00:33;;;;;;;5.63;2.05;;;;;;;;;;5004778;28;20059;-68
2023/10/04 00:03:00;;;;;;;6.53;2.10;;;;;;;;;;5027134;28;20219;-67
2023/10/04 00:05:25;;;;;;;8.02;2.05;;;;;;;;;;5022355;28;20032;-68
2023/10/04 00:07:51;;;;;;;8.43;2.05;;;;;;;;;;5025112;28;20018;-67
2023/10/04 00:10:17;;;;;;;7.93;2.05;;;;;;;;;;5020382;28;20018;-69
2023/10/04 00:12:43;;;;;;;4.55;1.55;;;;;;;;;;5024873;28;20032;-67
2023/10/04 00:15:15;;;;;;;5.80;1.83;;;;;;;;;;5026580;28;20076;-68
2023/10/04 00:17:42;;;;;;;6.63;2.30;;;;;;;;;;5030482;28;20461;-67
2023/10/04 00:20:10;;;;;;;8.98;2.10;;;;;;;;;;5024379;28;20430;-68
2023/10/04 00:22:39;;;;;;;8.43;2.78;;;;;;;;;;5025025;28;20026;-68
2023/10/04 00:25:05;;;;;;;14.27;2.13;;;;;;;;;;5027600;28;20056;-68
2023/10/04 00:27:30;;;;;;;7.68;2.00;;;;;;;;;;5030078;28;20583;-64
2023/10/04 00:29:56;;;;;;;13.15;2.17;;;;;;;;;;5020224;28;20097;-68
2023/10/04 00:32:21;;;;;;;8.77;2.28;;;;;;;;;;5028009;28;20293;-67
2023/10/04 00:34:46;;;;;;;9.25;2.35;;;;;;;;;;5029776;28;20102;-66
2023/10/04 00:37:11;;;;;;;7.50;2.47;;;;;;;;;;5034539;28;20143;-66
2023/10/04 00:39:39;;;;;;;5.10;1.88;;;;;;;;;;5022867;28;20144;-67
2023/10/04 00:42:05;;;;;;;6.17;2.23;;;;;;;;;;5025568;28;20021;-67
2023/10/04 00:44:35;;;;;;;9.73;2.05;;;;;;;;;;5022149;28;20381;-65
2023/10/04 00:47:05;;;;;;;10.77;1.95;;;;;;;;;;5033374;28;20111;-64
2023/10/04 00:49:31;;;;;;;9.63;2.08;;;;;;;;;;5019852;28;20043;-65
2023/10/04 00:51:58;;;;;;;10.55;2.25;;;;;;;;;;5029459;28;20043;-68
2023/10/04 00:54:23;;;;;;;5.85;2.00;;;;;;;;;;5017787;28;20088;-65
2023/10/04 00:56:51;;;;;;;7.57;2.25;;;;;;;;;;5021060;28;20096;-67
2023/10/04 00:59:16;;;;;;;5.00;1.73;;;;;;;;;;5023437;28;20415;-67
2023/10/04 01:01:42;;;;;;;7.68;2.47;;;;;;;;;;5028055;28;20114;-68
2023/10/04 01:04:07;;;;;;;12.07;2.25;;;;;;;;;;5027136;28;20050;-68
2023/10/04 01:06:35;;;;;;;7.88;2.13;;;;;;;;;;5027147;28;20357;-65
2023/10/04 01:09:01;;;;;;;11.33;1.87;;;;;;;;;;5017392;28;20022;-65
2023/10/04 01:11:26;;;;;;;6.57;1.92;;;;;;;;;;5025845;28;20018;-68
2023/10/04 01:14:01;;;;;;;4.82;1.70;;;;;;;;;;5024834;28;20068;-68
2023/10/04 01:16:26;;;;;;;3.95;1.92;;;;;;;;;;5003785;28;20022;-69
2023/10/04 01:18:51;;;;;;;3.28;1.55;;;;;;;;;;5023433;28;20100;-65
2023/10/04 01:21:17;;;;;;;12.38;2.45;;;;;;;;;;5024733;28;20029;-68
2023/10/04 01:23:45;;;;;;;8.70;2.40;;;;;;;;;;5027712;28;20432;-67
2023/10/04 01:26:25;;;;;;;10.00;1.90;;;;;;;;;;5027891;28;20091;-66
2023/10/04 01:28:50;;;;;;;5.95;2.05;;;;;;;;;;5025360;28;20125;-67
2023/10/04 01:31:15;;;;;;;7.40;1.65;;;;;;;;;;5009113;28;20533;-65
2023/10/04 01:33:41;;;;;;;4.32;1.88;;;;;;;;;;5029069;28;20121;-68
2023/10/04 01:36:06;;;;;;;9.77;2.28;;;;;;;;;;5018191;28;20417;-67
2023/10/04 01:38:32;;;;;;;7.32;2.03;;;;;;;;;;5036035;28;20013;-67
2023/10/04 01:40:57;;;;;;;5.47;1.77;;;;;;;;;;5023731;28;20120;-68
2023/10/04 01:43:26;;;;;;;6.05;2.13;;;;;;;;;;5021675;28;20022;-65
2023/10/04 01:45:52;;;;;;;9.60;2.17;;;;;;;;;;5021264;28;20369;-67
2023/10/04 01:48:18;;;;;;;7.25;1.92;;;;;;;;;;5035980;28;20140;-68
2023/10/04 01:50:43;;;;;;;6.40;1.98;;;;;;;;;;5024062;28;20043;-66
2023/10/04 01:53:09;;;;;;;7.05;2.13;;;;;;;;;;5028765;28;20040;-68
2023/10/04 01:55:35;;;;;;;8.02;2.38;;;;;;;;;;5020455;28;20521;-66
2023/10/04 01:58:00;;;;;;;8.13;2.28;;;;;;;;;;5023365;28;20136;-67
2023/10/04 02:00:28;;;;;;;5.07;1.90;;;;;;;;;;5022784;28;20028;-65
2023/10/04 02:02:53;;;;;;;7.10;2.15;;;;;;;;;;5024798;28;20018;-65
2023/10/04 02:05:40;;;;;;;6.53;1.88;;;;;;;;;;5020293;28;20017;-68
2023/10/04 02:08:07;;;;;;;7.80;1.83;;;;;;;;;;5023191;28;20120;-67
2023/10/04 02:10:33;;;;;;;6.97;2.08;;;;;;;;;;5019426;28;20021;-67
2023/10/04 02:12:58;;;;;;;5.68;1.70;;;;;;;;;;5028227;28;20017;-67
2023/10/04 02:15:24;;;;;;;8.60;1.90;;;;;;;;;;5024981;28;20056;-67
2023/10/04 02:17:53;;;;;;;5.22;1.88;;;;;;;;;;5020475;28;20017;-68
2023/10/04 02:20:21;;;;;;;9.52;2.03;;;;;;;;;;5022362;28;20025;-66
2023/10/04 02:22:47;;;;;;;5.88;1.88;;;;;;;;;;5028199;28;20053;-66
2023/10/04 02:25:13;;;;;;;4.60;1.80;;;;;;;;;;5026188;28;20009;-68
2023/10/04 02:27:40;;;;;;;5.43;2.17;;;;;;;;;;5026504;28;20535;-67
2023/10/04 02:30:13;;;;;;;7.07;2.17;;;;;;;;;;5025207;28;20037;-66
2023/10/04 02:32:41;;;;;;;12.10;2.40;;;;;;;;;;5023514;28;20025;-67
2023/10/04 02:35:06;;;;;;;9.85;2.17;;;;;;;;;;5024502;28;20032;-68
2023/10/04 02:37:32;;;;;;;10.85;2.25;;;;;;;;;;5011714;28;20026;-68
2023/10/04 02:39:57;;;;;;;5.38;1.85;;;;;;;;;;5023211;28;20027;-66
2023/10/04 02:42:23;;;;;;;5.55;2.20;;;;;;;;;;5020533;28;20041;-68
2023/10/04 02:44:48;;;;;;;10.35;2.50;;;;;;;;;;5020161;28;20122;-68
2023/10/04 02:47:13;;;;;;;10.68;2.45;;;;;;;;;;5025920;28;20017;-68
2023/10/04 02:49:38;;;;;;;6.55;2.13;;;;;;;;;;5024150;28;20136;-66
2023/10/04 02:52:06;;;;;;;8.55;2.35;;;;;;;;;;5019720;28;20071;-67
2023/10/04 02:54:31;;;;;;;8.02;2.70;;;;;;;;;;5022106;28;20019;-67
2023/10/04 02:56:58;;;;;;;8.23;2.28;;;;;;;;;;5017468;28;20389;-65
2023/10/04 02:59:24;;;;;;;7.88;2.28;;;;;;;;;;5020978;28;20022;-68
2023/10/04 03:01:50;;;;;;;9.82;2.63;;;;;;;;;;5024918;28;20186;-66
2023/10/04 03:04:15;;;;;;;10.68;2.38;;;;;;;;;;5019789;28;20026;-68
2023/10/04 03:06:41;;;;;;;9.77;2.15;;;;;;;;;;5025303;28;20010;-69
2023/10/04 03:09:06;;;;;;;7.18;2.67;;;;;;;;;;5017686;28;20021;-66
2023/10/04 03:11:32;;;;;;;6.20;2.25;;;;;;;;;;5023376;28;20530;-67
2023/10/04 03:14:02;;;;;;;9.45;2.33;;;;;;;;;;5023579;28;20432;-67
2023/10/04 03:16:27;;;;;;;9.88;2.58;;;;;;;;;;5021349;28;20079;-66
2023/10/04 03:18:53;;;;;;;8.60;2.60;;;;;;;;;;5021340;28;20060;-68
2023/10/04 03:21:26;;;;;;;7.05;2.60;;;;;;;;;;5020188;28;20026;-66
2023/10/04 03:23:54;;;;;;;8.05;2.08;;;;;;;;;;5022860;28;20018;-68
2023/10/04 03:26:19;;;;;;;12.95;3.13;;;;;;;;;;5021318;28;20033;-67
2023/10/04 03:28:45;;;;;;;7.53;2.55;;;;;;;;;;5023721;28;20021;-69
2023/10/04 03:31:11;;;;;;;7.15;2.33;;;;;;;;;;5020492;28;20010;-66
2023/10/04 03:33:36;;;;;;;8.00;2.50;;;;;;;;;;5024623;28;20143;-68
2023/10/04 03:36:05;;;;;;;6.63;2.53;;;;;;;;;;5027658;28;20497;-67
2023/10/04 03:38:33;;;;;;;10.48;2.30;;;;;;;;;;5033730;28;20103;-66
2023/10/04 03:40:59;;;;;;;6.65;2.38;;;;;;;;;;5027674;28;20160;-66
2023/10/04 03:43:24;;;;;;;6.55;2.88;;;;;;;;;;5026264;28;20101;-68
2023/10/04 03:45:50;;;;;;;5.32;2.60;;;;;;;;;;5026384;28;20068;-67
2023/10/04 03:48:15;;;;;;;5.22;2.30;;;;;;;;;;5036283;28;20078;-68
2023/10/04 03:50:48;;;;;;;11.07;3.10;;;;;;;;;;5033457;28;20017;-67
2023/10/04 03:53:14;;;;;;;8.55;2.70;;;;;;;;;;5033050;28;20005;-68
2023/10/04 03:55:39;;;;;;;7.55;2.42;;;;;;;;;;5023662;28;20010;-67
2023/10/04 03:58:04;;;;;;;9.23;3.60;;;;;;;;;;5028043;28;20021;-67
2023/10/04 04:00:33;;;;;;;10.23;3.13;;;;;;;;;;5027159;28;20022;-67
2023/10/04 04:02:59;;;;;;;13.43;2.85;;;;;;;;;;5028956;28;20096;-66
2023/10/04 04:05:25;;;;;;;6.40;2.63;;;;;;;;;;5030271;28;20013;-66
2023/10/04 04:07:51;;;;;;;14.10;3.30;;;;;;;;;;5028095;28;20019;-68
2023/10/04 04:10:18;;;;;;;9.18;2.85;;;;;;;;;;5033020;28;20020;-68
2023/10/04 04:12:46;;;;;;;7.53;3.13;;;;;;;;;;5028209;28;20088;-68
2023/10/04 04:15:12;;;;;;;8.88;2.75;;;;;;;;;;5032039;28;20087;-67
2023/10/04 04:17:39;;;;;;;8.27;3.40;;;;;;;;;;5026451;28;20048;-67
2023/10/04 04:20:08;;;;;;;11.68;3.10;;;;;;;;;;5028022;28;20037;-67
2023/10/04 04:22:34;;;;;;;7.28;3.17;;;;;;;;;;5034885;28;20041;-67
2023/10/04 04:25:00;;;;;;;10.05;2.88;;;;;;;;;;5023000;28;20022;-65
2023/10/04 04:27:25;;;;;;;10.32;2.75;;;;;;;;;;5032440;28;20077;-67
2023/10/04 04:29:52;;;;;;;10.43;2.38;;;;;;;;;;5029598;28;20023;-69
2023/10/04 04:32:18;;;;;;;6.35;2.47;;;;;;;;;;5031522;28;20025;-67
2023/10/04 04:34:44;;;;;;;8.32;2.88;;;;;;;;;;5027591;28;20020;-69
2023/10/04 04:37:09;;;;;;;8.50;3.10;;;;;;;;;;5038689;28;20101;-68
2023/10/04 04:39:39;;;;;;;10.05;2.65;;;;;;;;;;5025714;28;20048;-67
2023/10/04 04:42:05;;;;;;;7.38;2.47;;;;;;;;;;5029254;28;20010;-69
2023/10/04 04:44:38;;;;;;;7.80;2.55;;;;;;;;;;5023504;28;20036;-66
2023/10/04 04:47:04;;;;;;;7.80;2.63;;;;;;;;;;5030143;28;20123;-65
2023/10/04 04:49:29;;;;;;;6.35;2.40;;;;;;;;;;5026730;28;20490;-69
2023/10/04 04:51:55;;;;;;;6.70;2.25;;;;;;;;;;5022389;28;20361;-67
2023/10/04 04:54:20;;;;;;;7.82;2.42;;;;;;;;;;5024990;28;20016;-65
2023/10/04 04:56:45;;;;;;;10.35;3.28;;;;;;;;;;5023267;28;20013;-67
2023/10/04 04:59:11;;;;;;;8.10;2.60;;;;;;;;;;5023222;28;20046;-67
2023/10/04 05:01:39;;;;;;;10.90;2.90;;;;;;;;;;5029675;28;20043;-68
2023/10/04 05:04:06;;;;;;;8.15;2.88;;;;;;;;;;5020898;28;20009;-66
2023/10/04 05:06:32;;;;;;;13.73;3.30;;;;;;;;;;5028783;28;20096;-67
2023/10/04 05:08:58;;;;;;;16.42;2.95;;;;;;;;;;5008531;28;20116;-68
2023/10/04 05:11:26;;;;;;;8.70;3.10;;;;;;;;;;5028983;28;20188;-69
2023/10/04 05:13:54;;;;;;;8.13;2.72;;;;;;;;;;5024326;28;20048;-67
2023/10/04 05:16:19;;;;;;;8.80;2.63;;;;;;;;;;5026413;28;20040;-67
2023/10/04 05:18:44;;;;;;;12.23;3.28;;;;;;;;;;5028321;28;20010;-67
2023/10/04 05:21:14;;;;;;;11.68;3.65;;;;;;;;;;5010272;28;20025;-67
2023/10/04 05:23:39;;;;;;;12.45;2.60;;;;;;;;;;5005736;28;20028;-68
2023/10/04 05:26:04;;;;;;;8.02;2.33;;;;;;;;;;5023210;28;20017;-67
2023/10/04 05:28:30;;;;;;;10.02;3.38;;;;;;;;;;5026074;28;20104;-67
2023/10/04 05:30:55;;;;;;;9.55;3.05;;;;;;;;;;5024942;28;20123;-67
2023/10/04 05:33:21;;;;;;;9.90;2.95;;;;;;;;;;5027929;28;20018;-64
2023/10/04 05:35:48;;;;;;;8.85;2.95;;;;;;;;;;5027330;28;20021;-67
2023/10/04 05:38:17;;;;;;;7.22;2.33;;;;;;;;;;5022833;28;20080;-65
2023/10/04 05:40:43;;;;;;;8.98;2.60;;;;;;;;;;5025450;28;20022;-68
2023/10/04 05:43:09;;;;;;;10.20;2.80;;;;;;;;;;5019039;28;20056;-69
2023/10/04 05:45:34;;;;;;;11.35;2.88;;;;;;;;;;5027978;28;20044;-67
2023/10/04 05:48:00;;;;;;;7.15;2.97;;;;;;;;;;5031933;28;20049;-70
2023/10/04 05:50:26;;;;;;;7.05;2.70;;;;;;;;;;5022695;28;20101;-68
2023/10/04 05:52:51;;;;;;;11.57;3.22;;;;;;;;;;5022058;28;20009;-64
2023/10/04 05:55:17;;;;;;;14.18;2.90;;;;;;;;;;5020171;28;20029;-68
2023/10/04 05:57:45;;;;;;;9.07;3.30;;;;;;;;;;5019917;28;20096;-66
2023/10/04 06:03:00;;;;;;;10.38;2.63;;;;;;;;;;5024332;28;20037;-67
2023/10/04 06:05:27;;;;;;;11.45;3.22;;;;;;;;;;5027852;28;20033;-68
2023/10/04 06:07:56;;;;;;;12.60;3.45;;;;;;;;;;5029762;28;20079;-68
2023/10/04 06:10:23;;;;;;;12.98;3.03;;;;;;;;;;5025673;28;20033;-68
2023/10/04 06:12:50;;;;;;;8.43;2.90;;;;;;;;;;5023874;28;20018;-67
2023/10/04 06:15:16;;;;;;;11.60;2.65;;;;;;;;;;5025694;28;20022;-65
2023/10/04 06:17:45;;;;;;;7.40;2.50;;;;;;;;;;5024229;28;20070;-68
2023/10/04 06:20:33;;;;;;;7.75;2.65;;;;;;;;;;5022940;28;20025;-67
2023/10/04 06:23:00;;;;;;;8.77;2.73;;;;;;;;;;5029969;28;20052;-66
2023/10/04 06:25:27;;;;;;;7.20;2.60;;;;;;;;;;5027855;28;20024;-68
2023/10/04 06:27:53;;;;;;;7.35;2.10;;;;;;;;;;5027980;28;20472;-66
2023/10/04 06:30:21;;;;;;;10.82;2.63;;;;;;;;;;5027803;28;20009;-65
2023/10/04 06:32:47;;;;;;;8.73;3.00;;;;;;;;;;5004655;28;20107;-67
2023/10/04 06:35:12;;;;;;;8.77;2.83;;;;;;;;;;5025254;28;20487;-67
2023/10/04 06:37:38;;;;;;;10.05;2.75;;;;;;;;;;5023184;28;20022;-65
2023/10/04 06:40:10;;;;;;;8.35;2.60;;;;;;;;;;5024000;28;20064;-67
2023/10/04 06:42:35;;;;;;;7.60;2.83;;;;;;;;;;5023436;28;20017;-68
2023/10/04 06:45:00;;;;;;;5.53;2.65;;;;;;;;;;5024718;28;20385;-66
2023/10/04 06:47:27;;;;;;;7.00;2.25;;;;;;;;;;5026987;28;20477;-68
2023/10/04 06:49:52;;;;;;;11.45;2.70;;;;;;;;;;5027716;28;20092;-69
2023/10/04 06:52:18;;;;;;;10.70;2.55;;;;;;;;;;5020049;28;20109;-67
2023/10/04 06:54:43;;;;;;;10.50;2.92;;;;;;;;;;5005724;28;20108;-67
2023/10/04 06:57:08;;;;;;;6.63;2.50;;;;;;;;;;5019657;28;20045;-66
2023/10/04 06:59:33;;;;;;;8.45;2.40;;;;;;;;;;5022818;28;20009;-67
2023/10/04 07:01:59;;;;;;;6.75;2.17;;;;;;;;;;5017348;28;20024;-64
2023/10/04 07:04:24;;;;;;;7.65;2.30;;;;;;;;;;5021031;28;20013;-67
2023/10/04 07:06:49;;;;;;;7.55;2.90;;;;;;;;;;5024122;28;20121;-67
2023/10/04 07:09:14;;;;;;;6.35;2.33;;;;;;;;;;5026028;28;20020;-68
2023/10/04 07:11:39;;;;;;;10.77;2.72;;;;;;;;;;5022149;28;20094;-67
2023/10/04 07:14:05;;;;;;;5.40;2.38;;;;;;;;;;5006910;28;20021;-68
2023/10/04 07:16:30;;;;;;;8.00;2.53;;;;;;;;;;5022887;28;20017;-66
2023/10/04 07:18:57;;;;;;;8.50;2.55;;;;;;;;;;5022005;28;20018;-66
2023/10/04 07:21:23;;;;;;;14.77;2.40;;;;;;;;;;5007492;28;20091;-67
2023/10/04 07:23:48;;;;;;;8.05;2.38;;;;;;;;;;5022933;28;20476;-65
2023/10/04 07:26:13;;;;;;;12.23;2.95;;;;;;;;;;5021730;28;20342;-69
2023/10/04 07:28:40;;;;;;;7.68;2.45;;;;;;;;;;5026336;28;20404;-66
2023/10/04 07:31:05;;;;;;;7.72;2.88;;;;;;;;;;5021988;28;20018;-67
2023/10/04 07:33:30;;;;;;;11.35;2.70;;;;;;;;;;5021664;28;20075;-67
2023/10/04 07:35:55;;;;;;;13.40;3.25;;;;;;;;;;5023233;28;20101;-67
2023/10/04 07:38:21;;;;;;;9.32;2.42;;;;;;;;;;5021918;28;20021;-67
2023/10/04 07:40:46;;;;;;;9.77;2.30;;;;;;;;;;5025871;28;20017;-65
2023/10/04 07:43:13;;;;;;;11.60;2.55;;;;;;;;;;5017978;28;20022;-66
2023/10/04 07:45:39;;;;;;;9.10;2.10;;;;;;;;;;5020607;28;20164;-68
2023/10/04 07:48:04;;;;;;;14.38;2.80;;;;;;;;;;5028035;28;20451;-67
2023/10/04 07:50:31;;;;;;;9.63;2.30;;;;;;;;;;5023822;28;20022;-66
2023/10/04 07:52:59;;;;;;;5.95;2.40;;;;;;;;;;5025794;28;20039;-66
2023/10/04 07:55:25;;;;;;;5.55;2.08;;;;;;;;;;5021657;28;20014;-67
2023/10/04 07:57:52;;;;;;;14.73;2.83;;;;;;;;;;5023968;28;20107;-66
2023/10/04 08:00:17;;;;;;;9.27;2.72;;;;;;;;;;5019585;28;20093;-65
2023/10/04 08:02:49;;;;;;;5.00;2.00;;;;;;;;;;5022750;28;20487;-67
2023/10/04 08:05:33;;;;;;;6.55;2.42;;;;;;;;;;4998977;28;20404;-68
2023/10/04 08:08:00;;;;;;;11.52;2.65;;;;;;;;;;5021741;28;20044;-67
2023/10/04 08:10:27;;;;;;;7.47;2.70;;;;;;;;;;5019002;28;20021;-69
2023/10/04 08:12:54;;;;;;;15.05;3.10;;;;;;;;;;5021359;28;20017;-68
2023/10/04 08:15:25;;;;;;;8.35;2.83;;;;;;;;;;5021991;28;20022;-66
2023/10/04 08:17:51;;;;;;;13.25;3.17;;;;;;;;;;5019809;28;20104;-67
2023/10/04 08:20:24;;;;;;;8.70;2.72;;;;;;;;;;5002401;28;20477;-68
2023/10/04 08:22:50;;;;;;;10.40;3.30;;;;;;;;;;5024500;28;20488;-68
2023/10/04 08:25:19;;;;;;;15.68;3.20;;;;;;;;;;5022960;28;20060;-67
2023/10/04 08:27:45;;;;;;;13.05;2.90;;;;;;;;;;5028018;28;20041;-66
2023/10/04 08:30:11;;;;;;;8.68;3.00;;;;;;;;;;5005526;28;20145;-66
2023/10/04 08:32:37;;;;;;;10.15;3.25;;;;;;;;;;5025561;28;20561;-66
2023/10/04 08:35:02;;;;;;;12.57;3.38;;;;;;;;;;5025759;28;20013;-65
2023/10/04 08:37:28;;;;;;;8.73;2.95;;;;;;;;;;5012561;28;20013;-69
2023/10/04 08:39:53;;;;;;;14.43;3.45;;;;;;;;;;5024825;28;20048;-66
2023/10/04 08:42:18;;;;;;;9.13;3.40;;;;;;;;;;5023171;28;20032;-66
2023/10/04 08:44:44;;;;;;;8.95;3.00;;;;;;;;;;5021321;28;20022;-68
2023/10/04 08:47:10;;;;;;;10.77;2.88;;;;;;;;;;5029054;28;20491;-68
2023/10/04 08:49:53;;;;;;;11.55;3.60;;;;;;;;;;5027743;28;20013;-68
2023/10/04 08:52:39;;;;;;;7.07;2.80;;;;;;;;;;5012026;28;20108;-68
2023/10/04 08:55:07;;;;;;;12.32;2.90;;;;;;;;;;5029657;28;20137;-69
2023/10/04 08:57:38;;;;;;;12.32;3.60;;;;;;;;;;5008864;28;20101;-66
2023/10/04 09:00:10;;;;;;;8.25;3.17;;;;;;;;;;5020202;28;20029;-67
2023/10/04 09:02:35;;;;;;;9.05;2.70;;;;;;;;;;5030830;28;20032;-69
2023/10/04 09:05:01;;;;;;;12.23;3.15;;;;;;;;;;5021302;28;20013;-67
2023/10/04 09:07:27;;;;;;;11.48;3.22;;;;;;;;;;5017184;28;20022;-68
2023/10/04 09:09:56;;;;;;;8.18;3.00;;;;;;;;;;5020027;28;20448;-65
2023/10/04 09:12:21;;;;;;;;;;;;;;;;;;5022925;28;20028;-65
2023/10/04 09:14:46;;;;;;;9.07;2.40;;;;;;;;;;5027317;28;19909;-67
2023/10/04 09:17:14;;;;;;;9.05;2.83;;;;;;;;;;5019233;28;20014;-66
2023/10/04 09:19:39;;;;;;;10.40;2.70;;;;;;;;;;5026072;28;20013;-65
2023/10/04 09:22:05;;;;;;;11.00;2.88;;;;;;;;;;5021554;28;20014;-67
2023/10/04 09:24:31;;;;;;;17.50;3.15;;;;;;;;;;5024374;28;20435;-66
2023/10/04 09:26:56;;;;;;;10.35;3.17;;;;;;;;;;5007526;28;20041;-68
2023/10/04 09:29:38;;;;;;;10.15;3.08;;;;;;;;;;5023377;28;20507;-67
2023/10/04 09:32:04;;;;;;;17.65;3.15;;;;;;;;;;5023477;28;20037;-65
2023/10/04 09:34:29;;;;;;;10.82;2.80;;;;;;;;;;5027974;28;20056;-68
2023/10/04 09:36:55;;;;;;;17.40;3.28;;;;;;;;;;5027600;28;20097;-68
2023/10/04 09:39:24;;;;;;;10.70;2.80;;;;;;;;;;5029769;28;20488;-65
2023/10/04 09:41:50;;;;;;;7.57;2.78;;;;;;;;;;5023612;28;20029;-68
2023/10/04 09:44:20;;;;;;;14.35;3.97;;;;;;;;;;5011505;28;20089;-68
2023/10/04 09:46:48;;;;;;;12.07;3.40;;;;;;;;;;5024749;28;20028;-67
2023/10/04 09:49:14;;;;;;;11.88;2.97;;;;;;;;;;5025548;28;20413;-68
2023/10/04 09:51:39;;;;;;;9.75;3.03;;;;;;;;;;5022099;28;20129;-68
2023/10/04 09:54:05;;;;;;;13.68;3.78;;;;;;;;;;5026259;28;20018;-67
2023/10/04 09:56:30;;;;;;;12.85;4.50;;;;;;;;;;5020528;28;20067;-68
2023/10/04 09:58:55;;;;;;;17.83;2.83;;;;;;;;;;5020000;28;20045;-67
2023/10/04 10:01:23;;;;;;;11.27;2.80;;;;;;;;;;5026515;28;20025;-65
2023/10/04 10:04:07;;;;;;;9.55;2.80;;;;;;;;;;5017357;28;20022;-69
2023/10/04 10:06:34;;;;;;;10.02;2.95;;;;;;;;;;5022829;28;20041;-68
2023/10/04 10:09:02;;;;;;;13.88;3.33;;;;;;;;;;5028041;28;20134;-67
2023/10/04 10:11:28;;;;;;;6.97;2.50;;;;;;;;;;5018842;28;20056;-67
2023/10/04 10:13:54;;;;;;;14.60;2.88;;;;;;;;;;5022745;28;20021;-65
2023/10/04 10:16:20;;;;;;;8.68;2.63;;;;;;;;;;5023581;28;20040;-68
2023/10/04 10:18:46;;;;;;;17.40;4.53;;;;;;;;;;5026560;28;20014;-67
2023/10/04 10:21:12;;;;;;;11.40;3.15;;;;;;;;;;5022344;28;20071;-67
2023/10/04 10:23:58;;;;;;;11.48;3.00;;;;;;;;;;5022188;28;20014;-68
2023/10/04 10:26:23;;;;;;;9.07;3.25;;;;;;;;;;5020768;28;20491;-68
2023/10/04 10:28:55;;;;;;;6.60;2.60;;;;;;;;;;5024888;28;20025;-68
2023/10/04 10:31:21;;;;;;;10.85;2.97;;;;;;;;;;5025647;28;20018;-63
2023/10/04 10:33:47;;;;;;;13.02;3.90;;;;;;;;;;5023922;28;20495;-67
2023/10/04 10:36:22;;;;;;;8.95;2.78;;;;;;;;;;5029243;28;20049;-65
2023/10/04 10:38:48;;;;;;;8.43;2.88;;;;;;;;;;5024313;28;20135;-66
2023/10/04 10:41:28;;;;;;;8.45;2.28;;;;;;;;;;5010021;28;20022;-67
2023/10/04 10:44:14;;;;;;;6.38;2.10;;;;;;;;;;5018909;28;20097;-66
2023/10/04 10:46:59;;;;;;;8.95;2.83;;;;;;;;;;5011642;28;20520;-67
2023/10/04 10:49:44;;;;;;;11.18;2.90;;;;;;;;;;5026558;28;20673;-68
2023/10/04 10:52:21;;;;;;;8.00;2.92;;;;;;;;;;5017759;28;20024;-67
2023/10/04 10:54:47;;;;;;;8.13;2.85;;;;;;;;;;5021688;28;20023;-70
2023/10/04 10:57:13;;;;;;;9.35;3.25;;;;;;;;;;5005721;28;20021;-66
2023/10/04 10:59:38;;;;;;;7.80;2.95;;;;;;;;;;5022447;28;20037;-68
2023/10/04 11:02:06;;;;;;;10.73;3.42;;;;;;;;;;5023099;28;20021;-65
2023/10/04 11:04:32;;;;;;;13.10;3.67;;;;;;;;;;5020159;28;20022;-68
2023/10/04 11:06:57;;;;;;;13.27;3.67;;;;;;;;;;5020680;28;20064;-69
2023/10/04 11:09:22;;;;;;;10.98;2.50;;;;;;;;;;5026795;28;20057;-67
2023/10/04 11:11:48;;;;;;;10.25;2.90;;;;;;;;;;5019948;28;20125;-67
2023/10/04 11:14:16;;;;;;;10.82;3.58;;;;;;;;;;5024365;28;20017;-67
2023/10/04 11:16:41;;;;;;;14.63;3.00;;;;;;;;;;5026697;28;20047;-67
2023/10/04 11:19:06;;;;;;;11.05;3.15;;;;;;;;;;5024898;28;20025;-67
2023/10/04 11:21:32;;;;;;;13.27;3.00;;;;;;;;;;5027105;28;20036;-67
2023/10/04 11:24:01;;;;;;;14.57;3.50;;;;;;;;;;5025083;28;20063;-67
2023/10/04 11:26:26;;;;;;;13.45;3.00;;;;;;;;;;5019991;28;20028;-69
2023/10/04 11:28:52;;;;;;;11.88;3.67;;;;;;;;;;5023116;28;20021;-68
2023/10/04 11:31:18;;;;;;;11.23;3.08;;;;;;;;;;5021169;28;20018;-69
2023/10/04 11:33:59;;;;;;;18.80;3.45;;;;;;;;;;5027158;28;20029;-67
2023/10/04 11:36:25;;;;;;;11.35;3.72;;;;;;;;;;5023817;28;20010;-65
2023/10/04 11:38:51;;;;;;;9.57;2.95;;;;;;;;;;5030279;28;20032;-67
2023/10/04 11:41:17;;;;;;;13.27;3.03;;;;;;;;;;5025979;28;20014;-68
2023/10/04 11:43:44;;;;;;;11.77;3.88;;;;;;;;;;5028130;28;20361;-66
2023/10/04 11:46:09;;;;;;;23.50;3.88;;;;;;;;;;5001675;28;20436;-67
2023/10/04 11:48:35;;;;;;;8.27;3.05;;;;;;;;;;5030867;28;20018;-64
2023/10/04 11:51:01;;;;;;;11.05;3.70;;;;;;;;;;5017426;28;20516;-65
2023/10/04 11:53:33;;;;;;;10.15;2.97;;;;;;;;;;5026453;28;20020;-68
2023/10/04 11:56:00;;;;;;;9.73;3.13;;;;;;;;;;5022425;28;20022;-68
2023/10/04 11:58:27;;;;;;;11.98;3.63;;;;;;;;;;5028791;28;20056;-64
2023/10/04 12:01:03;;;;;;;11.77;3.83;;;;;;;;;;5025321;28;20036;-66
2023/10/04 12:03:30;;;;;;;16.08;3.28;;;;;;;;;;5025734;28;20567;-68
2023/10/04 12:05:56;;;;;;;10.75;3.25;;;;;;;;;;5028903;28;20579;-66
2023/10/04 12:08:22;;;;;;;9.05;3.10;;;;;;;;;;5024592;28;20026;-68
2023/10/04 12:10:47;;;;;;;10.35;2.97;;;;;;;;;;5030724;28;20032;-69
2023/10/04 12:13:13;;;;;;;12.65;3.08;;;;;;;;;;5022289;28;20017;-69
2023/10/04 12:15:39;;;;;;;14.57;3.50;;;;;;;;;;5027337;28;20040;-69
2023/10/04 12:18:06;;;;;;;15.23;3.30;;;;;;;;;;5028075;28;20194;-64
2023/10/04 12:20:35;;;;;;;10.75;3.25;;;;;;;;;;5031668;28;20067;-68
2023/10/04 12:23:01;;;;;;;9.93;2.90;;;;;;;;;;5031910;28;20013;-68
2023/10/04 12:25:27;;;;;;;8.13;3.03;;;;;;;;;;5023909;28;20021;-67
2023/10/04 12:27:52;;;;;;;5.60;2.65;;;;;;;;;;5027579;28;20018;-65
2023/10/04 12:30:19;;;;;;;10.13;3.53;;;;;;;;;;5025684;28;20104;-68
2023/10/04 12:32:46;;;;;;;12.02;3.20;;;;;;;;;;5027693;28;20512;-64
2023/10/04 12:35:13;;;;;;;13.73;3.50;;;;;;;;;;5030162;28;20025;-68
2023/10/04 12:37:38;;;;;;;15.13;3.10;;;;;;;;;;5031018;28;20519;-67
2023/10/04 12:40:11;;;;;;;13.07;3.08;;;;;;;;;;5026283;28;20108;-64
2023/10/04 12:42:36;;;;;;;11.88;3.45;;;;;;;;;;5025997;28;20101;-68
2023/10/04 12:45:02;;;;;;;17.27;3.17;;;;;;;;;;5030762;28;20474;-67
2023/10/04 12:47:28;;;;;;;10.85;3.15;;;;;;;;;;5028721;28;20635;-67
2023/10/04 12:49:53;;;;;;;9.18;3.05;;;;;;;;;;5009304;28;20100;-67
2023/10/04 12:52:18;;;;;;;13.55;3.83;;;;;;;;;;5023702;28;20152;-68
2023/10/04 12:54:44;;;;;;;12.77;3.40;;;;;;;;;;5024558;28;20009;-68
2023/10/04 12:57:11;;;;;;;11.23;3.45;;;;;;;;;;5027245;28;20177;-69
2023/10/04 12:59:36;;;;;;;14.23;4.40;;;;;;;;;;5025000;28;20041;-67
2023/10/04 13:02:02;;;;;;;13.20;3.33;;;;;;;;;;5025658;28;20021;-68
2023/10/04 13:04:27;;;;;;;8.50;3.08;;;;;;;;;;5021835;28;20063;-67
2023/10/04 13:06:52;;;;;;;11.57;3.20;;;;;;;;;;5030435;28;20029;-65
2023/10/04 13:09:26;;;;;;;8.80;3.38;;;;;;;;;;5029116;28;20014;-65
2023/10/04 13:11:52;;;;;;;13.25;3.33;;;;;;;;;;5030400;28;20369;-69
2023/10/04 13:14:17;;;;;;;15.88;4.13;;;;;;;;;;5028391;28;20013;-68
2023/10/04 13:16:42;;;;;;;13.25;3.05;;;;;;;;;;5020868;28;20025;-67
2023/10/04 13:19:08;;;;;;;10.57;3.20;;;;;;;;;;5024643;28;20076;-64
2023/10/04 13:21:33;;;;;;;10.32;3.58;;;;;;;;;;5024565;28;20018;-67
2023/10/04 13:23:58;;;;;;;9.90;3.33;;;;;;;;;;5026626;28;20283;-66
2023/10/04 13:26:24;;;;;;;13.37;3.40;;;;;;;;;;5021932;28;20478;-67
2023/10/04 13:28:49;;;;;;;12.20;3.85;;;;;;;;;;5025033;28;20278;-68
2023/10/04 13:31:15;;;;;;;11.10;3.35;;;;;;;;;;5020011;28;20013;-65
2023/10/04 13:33:41;;;;;;;9.38;3.78;;;;;;;;;;5029713;28;20079;-68
2023/10/04 13:36:06;;;;;;;9.10;3.78;;;;;;;;;;5025577;28;20041;-68
2023/10/04 13:38:31;;;;;;;8.43;3.25;;;;;;;;;;5025821;28;20021;-68
2023/10/04 13:40:56;;;;;;;12.45;3.38;;;;;;;;;;5028198;28;20039;-67
2023/10/04 13:43:21;;;;;;;9.80;3.20;;;;;;;;;;5004137;28;20093;-68
2023/10/04 13:45:52;;;;;;;11.87;3.00;;;;;;;;;;5023018;28;20051;-67
2023/10/04 13:48:19;;;;;;;16.63;3.10;;;;;;;;;;5032095;28;20323;-67
2023/10/04 13:50:46;;;;;;;13.13;3.63;;;;;;;;;;5021397;28;20020;-64
2023/10/04 13:53:11;;;;;;;14.63;3.50;;;;;;;;;;5024893;28;20052;-69
2023/10/04 13:55:37;;;;;;;9.90;2.65;;;;;;;;;;5025192;28;20649;-69
2023/10/04 13:58:02;;;;;;;11.80;3.22;;;;;;;;;;5023237;28;20037;-67
2023/10/04 14:00:27;;;;;;;12.18;3.17;;;;;;;;;;5028324;28;20029;-65
2023/10/04 14:02:54;;;;;;;9.98;3.15;;;;;;;;;;5029130;28;20022;-68
2023/10/04 14:05:19;;;;;;;11.15;3.13;;;;;;;;;;5020702;28;20151;-69
2023/10/04 14:07:50;;;;;;;9.32;2.88;;;;;;;;;;5023088;28;20753;-66
2023/10/04 14:10:16;;;;;;;8.38;2.83;;;;;;;;;;5025476;28;20067;-66
2023/10/04 14:12:41;;;;;;;11.15;3.10;;;;;;;;;;5028583;28;20113;-69
2023/10/04 14:15:10;;;;;;;11.00;3.07;;;;;;;;;;5023104;28;20010;-68
2023/10/04 14:17:36;;;;;;;12.13;3.03;;;;;;;;;;5028448;28;20239;-66
2023/10/04 14:20:01;;;;;;;12.25;2.83;;;;;;;;;;5026710;28;20160;-68
2023/10/04 14:22:26;;;;;;;11.48;3.30;;;;;;;;;;5031081;28;20009;-68
2023/10/04 14:24:51;;;;;;;9.25;3.20;;;;;;;;;;5021431;28;20044;-68
2023/10/04 14:27:17;;;;;;;12.20;3.08;;;;;;;;;;5026759;28;20375;-68
2023/10/04 14:29:42;;;;;;;11.98;3.50;;;;;;;;;;5021724;28;20634;-66
2023/10/04 14:32:07;;;;;;;10.40;3.13;;;;;;;;;;5026059;28;20092;-68
2023/10/04 14:34:33;;;;;;;11.23;2.63;;;;;;;;;;5027744;28;20083;-69
2023/10/04 14:36:58;;;;;;;13.60;3.28;;;;;;;;;;5032069;28;20251;-66
2023/10/04 14:39:23;;;;;;;9.18;2.92;;;;;;;;;;5022589;28;20579;-66